Armstrong Mills, Ohio
Current Conditions -  °F | °C
As of 3:53 PM on Tuesday 27 Jan 2015 (Local Time) from KHLG Reporting Station
Overcast Overcast  
Wind Chill: 11°   Ceiling: 2400
Heat Index: 21°   Visibility: 8mi
Dew Point: 14°   Wind: 9mph
Humidity: 74%   Direction: 310°NW
Pressure: 29.99"   Gusts: NA
Location:  39.9375°N, 80.8976°W
Report Text: KHLG 272053Z 31008KT 8SM OVC024 M06/M10 A2999 RMK AO2 SNE40 SLP178 P0000 60000 T10611100 53015
Loading
Personal Weather Stations






























Interactive Weather Map New forecast layout! Learn more

10-Day Weather Forecast

Advertisements
Track Severe Weather on mobile